Ana Sayfa
METAR-TAF:

METAR-TAF

Havaalanları :

Jandakot, Avustralya

Enlem: 32-05-51S, Boylam: 115-52-52E, yükseklik: 30 m

Güncel hava durumu gözlemi

Rapor saat 08:30 UTC de 38 dakika önce yapıldı.
Rüzgar doğudan 11 kt
Sıcaklık 32°C
Nem 26%
Basınç 1016 hPa
Görüş mesafesi 10 km veya daha fazla

METAR: YPJT 170830Z AUTO 09011KT 9999 // NCD 32/10 Q1016 RF00.0/000.0

Saat: 17:08 (09:08 UTC)

Tahmin

Rapor saat 05:06 UTC de 4 saat ve 2 dakika önce yapıldı.
Ayın 17'si saat 06 UTC'den ayın 18'si saat 00 UTC'ye kadar geçerli Tahmin
Rüzgar güneydoğudan 13 kt
Görüş mesafesi 10 km veya daha fazla
1500 m altında bulut yok ve kümülonimbus yok
Ayın 17'si saat 1500 UTC'den
Rüzgar doğudan 18 kt ve 28 kt'a kadar ani rüzgarlar
Görüş mesafesi 10 km veya daha fazla
1500 m altında bulut yok ve kümülonimbus yok

TAF: YPJT 170506Z 1706/1800 13013KT CAVOK FM171500 10018G28KT CAVOK

4.000'den fazla havaalanı için hava durumu gözlemleri ve tahminleri (METAR ve TAF raporları).

Kullanılabilir istasyonlar harita üzerinde sarı ve kırmızı noktalarla gösterilir.

İstasyonun adını görmek için fareyi noktanın üzerinde gezdirin.

Sonrasında hava gözlem ve tahminlerini görmek için tıklayın.

Haritayı değiştirmek için: yaklaştırmak için siyah artı işaretli yeşil düğmeye ve uzaklaştırmak için de eksi işaretli düğmeye hızla tıklayın; bitişik haritalar için yeşil okları kullanın.


METAR-TAF: